sensor_id;sensor_type;location;lat;lon;timestamp;pressure;altitude;pressure_sealevel;temperature;humidity
45731;BME280;31440;48.584;13.460;2022-08-21T00:01:18;96829.28;;;16.26;100.00
45731;BME280;31440;48.584;13.460;2022-08-21T00:03:44;96826.84;;;16.09;100.00
45731;BME280;31440;48.584;13.460;2022-08-21T00:06:10;96820.75;;;16.09;100.00
45731;BME280;31440;48.584;13.460;2022-08-21T00:08:36;96821.28;;;15.99;100.00
45731;BME280;31440;48.584;13.460;2022-08-21T00:11:03;96818.75;;;16.12;100.00
45731;BME280;31440;48.584;13.460;2022-08-21T00:13:29;96809.19;;;16.11;100.00
45731;BME280;31440;48.584;13.460;2022-08-21T00:15:55;96810.63;;;16.02;100.00
45731;BME280;31440;48.584;13.460;2022-08-21T00:18:21;96809.13;;;15.84;100.00
45731;BME280;31440;48.584;13.460;2022-08-21T00:20:46;96819.84;;;15.65;100.00
45731;BME280;31440;48.584;13.460;2022-08-21T00:23:13;96811.09;;;15.51;100.00
45731;BME280;31440;48.584;13.460;2022-08-21T00:25:41;96813.97;;;15.76;100.00
45731;BME280;31440;48.584;13.460;2022-08-21T00:28:06;96811.06;;;15.95;100.00
45731;BME280;31440;48.584;13.460;2022-08-21T00:30:32;96812.50;;;15.72;100.00
45731;BME280;31440;48.584;13.460;2022-08-21T00:32:59;96806.09;;;15.76;100.00
45731;BME280;31440;48.584;13.460;2022-08-21T00:35:31;96804.34;;;15.91;100.00
45731;BME280;31440;48.584;13.460;2022-08-21T00:37:57;96812.31;;;15.59;100.00
45731;BME280;31440;48.584;13.460;2022-08-21T00:40:30;96805.91;;;15.79;100.00
45731;BME280;31440;48.584;13.460;2022-08-21T00:42:56;96812.84;;;15.94;100.00
45731;BME280;31440;48.584;13.460;2022-08-21T00:45:22;96812.28;;;15.75;100.00
45731;BME280;31440;48.584;13.460;2022-08-21T00:47:50;96812.00;;;15.94;100.00
45731;BME280;31440;48.584;13.460;2022-08-21T00:50:16;96808.94;;;15.73;100.00
45731;BME280;31440;48.584;13.460;2022-08-21T00:52:42;96815.94;;;15.73;100.00
45731;BME280;31440;48.584;13.460;2022-08-21T00:55:10;96810.13;;;15.82;100.00
45731;BME280;31440;48.584;13.460;2022-08-21T00:57:42;96809.13;;;15.98;100.00
45731;BME280;31440;48.584;13.460;2022-08-21T01:00:10;96809.88;;;15.56;100.00
45731;BME280;31440;48.584;13.460;2022-08-21T01:02:37;96807.25;;;16.00;100.00
45731;BME280;31440;48.584;13.460;2022-08-21T01:05:03;96806.50;;;15.84;100.00
45731;BME280;31440;48.584;13.460;2022-08-21T01:07:29;96807.44;;;15.97;100.00
45731;BME280;31440;48.584;13.460;2022-08-21T01:09:55;96792.91;;;15.92;100.00
45731;BME280;31440;48.584;13.460;2022-08-21T01:12:21;96809.97;;;16.13;100.00
45731;BME280;31440;48.584;13.460;2022-08-21T01:14:47;96808.75;;;16.19;100.00
45731;BME280;31440;48.584;13.460;2022-08-21T01:17:14;96804.53;;;16.16;100.00
45731;BME280;31440;48.584;13.460;2022-08-21T01:19:41;96807.03;;;16.32;100.00
45731;BME280;31440;48.584;13.460;2022-08-21T01:22:07;96803.38;;;16.34;100.00
45731;BME280;31440;48.584;13.460;2022-08-21T01:24:33;96801.50;;;16.36;100.00
45731;BME280;31440;48.584;13.460;2022-08-21T01:26:59;96800.56;;;16.37;100.00
45731;BME280;31440;48.584;13.460;2022-08-21T01:29:51;96803.00;;;16.41;100.00
45731;BME280;31440;48.584;13.460;2022-08-21T01:32:18;96801.88;;;16.30;100.00
45731;BME280;31440;48.584;13.460;2022-08-21T01:34:47;96798.72;;;16.11;100.00
45731;BME280;31440;48.584;13.460;2022-08-21T01:37:13;96804.16;;;16.22;100.00
45731;BME280;31440;48.584;13.460;2022-08-21T01:39:40;96798.19;;;16.47;100.00
45731;BME280;31440;48.584;13.460;2022-08-21T01:42:06;96800.03;;;16.18;100.00
45731;BME280;31440;48.584;13.460;2022-08-21T01:44:32;96794.97;;;16.01;100.00
45731;BME280;31440;48.584;13.460;2022-08-21T01:47:01;96798.25;;;15.32;100.00
45731;BME280;31440;48.584;13.460;2022-08-21T01:49:27;96797.78;;;15.98;100.00
45731;BME280;31440;48.584;13.460;2022-08-21T01:51:53;96783.00;;;15.97;100.00
45731;BME280;31440;48.584;13.460;2022-08-21T01:54:19;96787.97;;;16.01;100.00
45731;BME280;31440;48.584;13.460;2022-08-21T01:56:47;96784.13;;;16.07;100.00
45731;BME280;31440;48.584;13.460;2022-08-21T01:59:14;96770.44;;;16.02;100.00
45731;BME280;31440;48.584;13.460;2022-08-21T02:01:39;96778.03;;;16.21;100.00
45731;BME280;31440;48.584;13.460;2022-08-21T02:04:07;96770.47;;;15.88;100.00
45731;BME280;31440;48.584;13.460;2022-08-21T02:06:33;96767.81;;;16.16;100.00
45731;BME280;31440;48.584;13.460;2022-08-21T02:08:58;96767.53;;;15.78;100.00
45731;BME280;31440;48.584;13.460;2022-08-21T02:11:24;96764.56;;;15.84;100.00
45731;BME280;31440;48.584;13.460;2022-08-21T02:13:50;96765.56;;;15.96;100.00
45731;BME280;31440;48.584;13.460;2022-08-21T02:16:15;96760.31;;;16.10;100.00
45731;BME280;31440;48.584;13.460;2022-08-21T02:18:41;96761.94;;;15.84;100.00
45731;BME280;31440;48.584;13.460;2022-08-21T02:21:07;96752.84;;;16.04;100.00
45731;BME280;31440;48.584;13.460;2022-08-21T02:23:33;96756.78;;;15.83;100.00
45731;BME280;31440;48.584;13.460;2022-08-21T02:26:01;96747.91;;;15.71;100.00
45731;BME280;31440;48.584;13.460;2022-08-21T02:28:27;96732.44;;;15.66;100.00
45731;BME280;31440;48.584;13.460;2022-08-21T02:30:54;96748.91;;;15.68;100.00
45731;BME280;31440;48.584;13.460;2022-08-21T02:33:20;96755.94;;;15.68;100.00
45731;BME280;31440;48.584;13.460;2022-08-21T02:35:47;96755.66;;;15.87;100.00
45731;BME280;31440;48.584;13.460;2022-08-21T02:38:16;96743.53;;;15.56;100.00
45731;BME280;31440;48.584;13.460;2022-08-21T02:40:44;96753.63;;;15.48;100.00
45731;BME280;31440;48.584;13.460;2022-08-21T02:43:11;96745.00;;;15.90;100.00
45731;BME280;31440;48.584;13.460;2022-08-21T02:45:38;96749.41;;;15.45;100.00
45731;BME280;31440;48.584;13.460;2022-08-21T02:48:11;96752.19;;;15.86;100.00
45731;BME280;31440;48.584;13.460;2022-08-21T02:50:40;96746.84;;;15.74;100.00
45731;BME280;31440;48.584;13.460;2022-08-21T02:53:08;96755.00;;;15.83;100.00
45731;BME280;31440;48.584;13.460;2022-08-21T02:55:35;96750.69;;;15.82;100.00
45731;BME280;31440;48.584;13.460;2022-08-21T02:58:02;96745.28;;;15.41;100.00
45731;BME280;31440;48.584;13.460;2022-08-21T03:00:30;96750.31;;;15.74;100.00
45731;BME280;31440;48.584;13.460;2022-08-21T03:02:58;96749.75;;;15.69;100.00
45731;BME280;31440;48.584;13.460;2022-08-21T03:05:24;96752.66;;;15.64;100.00
45731;BME280;31440;48.584;13.460;2022-08-21T03:07:50;96749.50;;;15.58;100.00
45731;BME280;31440;48.584;13.460;2022-08-21T03:10:18;96749.06;;;15.51;100.00
45731;BME280;31440;48.584;13.460;2022-08-21T03:12:45;96756.38;;;15.75;100.00
45731;BME280;31440;48.584;13.460;2022-08-21T03:15:13;96750.19;;;15.61;100.00
45731;BME280;31440;48.584;13.460;2022-08-21T03:17:39;96744.00;;;15.34;100.00
45731;BME280;31440;48.584;13.460;2022-08-21T03:20:07;96760.38;;;15.38;100.00
45731;BME280;31440;48.584;13.460;2022-08-21T03:22:33;96749.50;;;15.58;100.00
45731;BME280;31440;48.584;13.460;2022-08-21T03:24:59;96752.72;;;15.63;100.00
45731;BME280;31440;48.584;13.460;2022-08-21T03:27:26;96750.13;;;15.77;100.00
45731;BME280;31440;48.584;13.460;2022-08-21T03:29:53;96742.38;;;15.90;100.00
45731;BME280;31440;48.584;13.460;2022-08-21T03:32:19;96750.97;;;15.78;100.00
45731;BME280;31440;48.584;13.460;2022-08-21T03:34:45;96742.53;;;16.01;100.00
45731;BME280;31440;48.584;13.460;2022-08-21T03:37:12;96749.09;;;15.65;100.00
45731;BME280;31440;48.584;13.460;2022-08-21T03:39:38;96753.03;;;15.73;100.00
45731;BME280;31440;48.584;13.460;2022-08-21T03:42:04;96755.00;;;15.69;100.00
45731;BME280;31440;48.584;13.460;2022-08-21T03:44:30;96753.69;;;15.90;100.00
45731;BME280;31440;48.584;13.460;2022-08-21T03:46:57;96747.47;;;15.63;100.00
45731;BME280;31440;48.584;13.460;2022-08-21T03:49:24;96750.63;;;15.40;100.00
45731;BME280;31440;48.584;13.460;2022-08-21T03:51:50;96755.75;;;15.71;100.00
45731;BME280;31440;48.584;13.460;2022-08-21T03:54:16;96761.88;;;15.56;100.00
45731;BME280;31440;48.584;13.460;2022-08-21T03:56:42;96759.91;;;15.59;100.00
45731;BME280;31440;48.584;13.460;2022-08-21T03:59:07;96759.84;;;15.75;100.00
45731;BME280;31440;48.584;13.460;2022-08-21T04:01:33;96759.59;;;15.65;100.00
45731;BME280;31440;48.584;13.460;2022-08-21T04:03:59;96763.28;;;15.47;100.00
45731;BME280;31440;48.584;13.460;2022-08-21T04:06:25;96766.16;;;15.57;100.00
45731;BME280;31440;48.584;13.460;2022-08-21T04:08:52;96767.09;;;15.72;100.00
45731;BME280;31440;48.584;13.460;2022-08-21T04:11:19;96761.97;;;15.54;100.00
45731;BME280;31440;48.584;13.460;2022-08-21T04:13:46;96751.59;;;15.53;100.00
45731;BME280;31440;48.584;13.460;2022-08-21T04:16:13;96774.38;;;15.66;100.00
45731;BME280;31440;48.584;13.460;2022-08-21T04:18:39;96754.38;;;15.35;100.00
45731;BME280;31440;48.584;13.460;2022-08-21T04:21:06;96763.84;;;15.52;100.00
45731;BME280;31440;48.584;13.460;2022-08-21T04:23:33;96768.03;;;15.71;100.00
45731;BME280;31440;48.584;13.460;2022-08-21T04:25:59;96769.22;;;15.79;100.00
45731;BME280;31440;48.584;13.460;2022-08-21T04:28:26;96756.78;;;15.39;100.00
45731;BME280;31440;48.584;13.460;2022-08-21T04:30:52;96771.75;;;15.66;100.00
45731;BME280;31440;48.584;13.460;2022-08-21T04:33:18;96784.91;;;15.51;100.00
45731;BME280;31440;48.584;13.460;2022-08-21T04:35:44;96778.44;;;15.56;100.00
45731;BME280;31440;48.584;13.460;2022-08-21T04:38:09;96781.78;;;15.44;100.00
45731;BME280;31440;48.584;13.460;2022-08-21T04:40:35;96764.72;;;15.23;100.00
45731;BME280;31440;48.584;13.460;2022-08-21T04:43:04;96781.44;;;15.50;100.00
45731;BME280;31440;48.584;13.460;2022-08-21T04:45:33;96778.44;;;15.56;100.00
45731;BME280;31440;48.584;13.460;2022-08-21T04:48:01;96787.53;;;15.51;100.00
45731;BME280;31440;48.584;13.460;2022-08-21T04:50:34;96788.31;;;15.67;100.00
45731;BME280;31440;48.584;13.460;2022-08-21T04:53:16;96782.47;;;15.62;100.00
45731;BME280;31440;48.584;13.460;2022-08-21T04:55:43;96788.59;;;15.77;100.00
45731;BME280;31440;48.584;13.460;2022-08-21T04:58:11;96791.53;;;15.72;100.00
45731;BME280;31440;48.584;13.460;2022-08-21T05:00:38;96798.31;;;15.75;100.00
45731;BME280;31440;48.584;13.460;2022-08-21T05:03:06;96793.56;;;15.67;100.00
45731;BME280;31440;48.584;13.460;2022-08-21T05:05:33;96798.06;;;15.79;100.00
45731;BME280;31440;48.584;13.460;2022-08-21T05:08:01;96804.16;;;15.94;100.00
45731;BME280;31440;48.584;13.460;2022-08-21T05:10:27;96802.09;;;15.99;100.00
45731;BME280;31440;48.584;13.460;2022-08-21T05:12:53;96784.94;;;15.79;100.00
45731;BME280;31440;48.584;13.460;2022-08-21T05:15:20;96799.13;;;16.05;100.00
45731;BME280;31440;48.584;13.460;2022-08-21T05:17:46;96800.22;;;15.87;100.00
45731;BME280;31440;48.584;13.460;2022-08-21T05:20:13;96800.72;;;16.08;100.00
45731;BME280;31440;48.584;13.460;2022-08-21T05:22:39;96807.53;;;15.96;100.00
45731;BME280;31440;48.584;13.460;2022-08-21T05:25:06;96798.28;;;16.04;100.00
45731;BME280;31440;48.584;13.460;2022-08-21T05:27:32;96794.97;;;15.73;100.00
45731;BME280;31440;48.584;13.460;2022-08-21T05:29:57;96798.38;;;15.89;100.00
45731;BME280;31440;48.584;13.460;2022-08-21T05:32:23;96801.75;;;15.91;100.00
45731;BME280;31440;48.584;13.460;2022-08-21T05:34:49;96809.50;;;16.21;100.00
45731;BME280;31440;48.584;13.460;2022-08-21T05:37:15;96808.84;;;16.03;100.00
45731;BME280;31440;48.584;13.460;2022-08-21T05:39:41;96809.97;;;15.99;100.00
45731;BME280;31440;48.584;13.460;2022-08-21T05:42:07;96807.06;;;16.18;100.00
45731;BME280;31440;48.584;13.460;2022-08-21T05:44:32;96818.88;;;16.25;100.00
45731;BME280;31440;48.584;13.460;2022-08-21T05:47:03;96828.03;;;16.18;100.00
45731;BME280;31440;48.584;13.460;2022-08-21T05:49:29;96824.84;;;16.13;100.00
45731;BME280;31440;48.584;13.460;2022-08-21T05:51:55;96823.38;;;16.09;100.00
45731;BME280;31440;48.584;13.460;2022-08-21T05:54:20;96829.56;;;16.08;100.00
45731;BME280;31440;48.584;13.460;2022-08-21T05:56:46;96819.22;;;16.33;100.00
45731;BME280;31440;48.584;13.460;2022-08-21T05:59:11;96827.72;;;16.51;100.00
45731;BME280;31440;48.584;13.460;2022-08-21T06:01:39;96823.63;;;16.32;100.00
45731;BME280;31440;48.584;13.460;2022-08-21T06:04:04;96821.19;;;16.29;100.00
45731;BME280;31440;48.584;13.460;2022-08-21T06:06:30;96824.22;;;16.09;100.00
45731;BME280;31440;48.584;13.460;2022-08-21T06:08:56;96823.53;;;16.34;100.00
45731;BME280;31440;48.584;13.460;2022-08-21T06:11:22;96828.03;;;16.32;100.00
45731;BME280;31440;48.584;13.460;2022-08-21T06:13:47;96831.41;;;16.34;100.00
45731;BME280;31440;48.584;13.460;2022-08-21T06:16:15;96824.09;;;16.39;100.00
45731;BME280;31440;48.584;13.460;2022-08-21T06:18:42;96825.97;;;16.37;100.00
45731;BME280;31440;48.584;13.460;2022-08-21T06:21:08;96830.75;;;16.59;100.00
45731;BME280;31440;48.584;13.460;2022-08-21T06:23:34;96824.94;;;16.39;100.00
45731;BME280;31440;48.584;13.460;2022-08-21T06:26:01;96831.88;;;16.41;100.00
45731;BME280;31440;48.584;13.460;2022-08-21T06:28:27;96814.00;;;16.04;100.00
45731;BME280;31440;48.584;13.460;2022-08-21T06:30:53;96831.38;;;16.48;100.00
45731;BME280;31440;48.584;13.460;2022-08-21T06:33:19;96826.41;;;16.58;100.00
45731;BME280;31440;48.584;13.460;2022-08-21T06:35:44;96831.66;;;16.58;100.00
45731;BME280;31440;48.584;13.460;2022-08-21T06:38:11;96828.34;;;16.83;100.00
45731;BME280;31440;48.584;13.460;2022-08-21T06:40:37;96829.59;;;16.77;100.00
45731;BME280;31440;48.584;13.460;2022-08-21T06:43:11;96824.09;;;16.94;100.00
45731;BME280;31440;48.584;13.460;2022-08-21T06:45:39;96827.72;;;16.65;100.00
45731;BME280;31440;48.584;13.460;2022-08-21T06:48:04;96818.09;;;16.92;100.00
45731;BME280;31440;48.584;13.460;2022-08-21T06:50:32;96817.13;;;16.66;100.00
45731;BME280;31440;48.584;13.460;2022-08-21T06:53:05;96823.69;;;17.00;100.00
45731;BME280;31440;48.584;13.460;2022-08-21T06:55:32;96819.72;;;17.07;100.00
45731;BME280;31440;48.584;13.460;2022-08-21T06:57:58;96817.22;;;16.51;100.00
45731;BME280;31440;48.584;13.460;2022-08-21T07:00:24;96815.31;;;16.81;100.00
45731;BME280;31440;48.584;13.460;2022-08-21T07:02:50;96816.19;;;16.53;100.00
45731;BME280;31440;48.584;13.460;2022-08-21T07:05:15;96819.88;;;16.92;100.00
45731;BME280;31440;48.584;13.460;2022-08-21T07:07:41;96813.72;;;17.05;100.00
45731;BME280;31440;48.584;13.460;2022-08-21T07:10:07;96819.94;;;17.04;100.00
45731;BME280;31440;48.584;13.460;2022-08-21T07:12:33;96815.22;;;17.10;100.00
45731;BME280;31440;48.584;13.460;2022-08-21T07:14:58;96824.84;;;16.96;100.00
45731;BME280;31440;48.584;13.460;2022-08-21T07:17:24;96820.69;;;16.65;100.00
45731;BME280;31440;48.584;13.460;2022-08-21T07:19:49;96813.53;;;17.08;100.00
45731;BME280;31440;48.584;13.460;2022-08-21T07:22:19;96816.84;;;16.71;100.00
45731;BME280;31440;48.584;13.460;2022-08-21T07:24:46;96818.19;;;16.91;100.00
45731;BME280;31440;48.584;13.460;2022-08-21T07:27:12;96826.97;;;16.77;100.00
45731;BME280;31440;48.584;13.460;2022-08-21T07:29:37;96823.13;;;16.68;100.00
45731;BME280;31440;48.584;13.460;2022-08-21T07:32:04;96821.25;;;17.24;100.00
45731;BME280;31440;48.584;13.460;2022-08-21T07:34:29;96822.28;;;17.22;100.00
45731;BME280;31440;48.584;13.460;2022-08-21T07:36:56;96819.19;;;17.29;100.00
45731;BME280;31440;48.584;13.460;2022-08-21T07:39:22;96826.00;;;17.71;100.00
45731;BME280;31440;48.584;13.460;2022-08-21T07:41:47;96826.41;;;17.26;100.00
45731;BME280;31440;48.584;13.460;2022-08-21T07:44:13;96825.28;;;17.03;100.00
45731;BME280;31440;48.584;13.460;2022-08-21T07:46:39;96826.38;;;17.13;100.00
45731;BME280;31440;48.584;13.460;2022-08-21T07:49:04;96828.84;;;17.02;100.00
45731;BME280;31440;48.584;13.460;2022-08-21T07:51:30;96816.34;;;17.32;100.00
45731;BME280;31440;48.584;13.460;2022-08-21T07:53:57;96811.09;;;17.85;100.00
45731;BME280;31440;48.584;13.460;2022-08-21T07:56:24;96817.22;;;17.19;100.00
45731;BME280;31440;48.584;13.460;2022-08-21T07:58:50;96820.53;;;17.74;100.00
45731;BME280;31440;48.584;13.460;2022-08-21T08:01:15;96820.53;;;17.74;100.00
45731;BME280;31440;48.584;13.460;2022-08-21T08:03:41;96818.53;;;16.99;100.00
45731;BME280;31440;48.584;13.460;2022-08-21T08:06:07;96817.03;;;17.22;100.00
45731;BME280;31440;48.584;13.460;2022-08-21T08:08:41;96817.47;;;17.55;100.00
45731;BME280;31440;48.584;13.460;2022-08-21T08:11:07;96828.50;;;17.21;100.00
45731;BME280;31440;48.584;13.460;2022-08-21T08:13:38;96819.66;;;17.22;100.00
45731;BME280;31440;48.584;13.460;2022-08-21T08:16:05;96819.81;;;17.33;100.00
45731;BME280;31440;48.584;13.460;2022-08-21T08:18:30;96820.03;;;17.42;100.00
45731;BME280;31440;48.584;13.460;2022-08-21T08:20:56;96821.91;;;17.67;100.00
45731;BME280;31440;48.584;13.460;2022-08-21T08:23:21;96820.72;;;17.71;100.00
45731;BME280;31440;48.584;13.460;2022-08-21T08:25:48;96819.50;;;18.15;100.00
45731;BME280;31440;48.584;13.460;2022-08-21T08:28:14;96814.63;;;18.09;100.00
45731;BME280;31440;48.584;13.460;2022-08-21T08:30:39;96828.00;;;17.81;100.00
45731;BME280;31440;48.584;13.460;2022-08-21T08:33:05;96818.88;;;17.86;100.00
45731;BME280;31440;48.584;13.460;2022-08-21T08:35:30;96808.94;;;18.53;100.00
45731;BME280;31440;48.584;13.460;2022-08-21T08:37:56;96818.00;;;18.11;100.00
45731;BME280;31440;48.584;13.460;2022-08-21T08:40:31;96805.59;;;18.13;100.00
45731;BME280;31440;48.584;13.460;2022-08-21T08:42:59;96813.28;;;18.16;100.00
45731;BME280;31440;48.584;13.460;2022-08-21T08:45:25;96816.75;;;18.17;100.00
45731;BME280;31440;48.584;13.460;2022-08-21T08:48:03;96816.13;;;18.13;100.00
45731;BME280;31440;48.584;13.460;2022-08-21T08:50:44;96818.22;;;18.46;100.00
45731;BME280;31440;48.584;13.460;2022-08-21T08:53:22;96824.38;;;18.70;100.00
45731;BME280;31440;48.584;13.460;2022-08-21T08:55:51;96815.84;;;18.67;100.00
45731;BME280;31440;48.584;13.460;2022-08-21T09:00:53;96822.06;;;18.66;100.00
45731;BME280;31440;48.584;13.460;2022-08-21T09:03:22;96827.19;;;18.18;100.00
45731;BME280;31440;48.584;13.460;2022-08-21T09:06:43;96812.19;;;18.57;100.00
45731;BME280;31440;48.584;13.460;2022-08-21T09:12:00;96821.59;;;19.08;100.00
45731;BME280;31440;48.584;13.460;2022-08-21T09:17:39;96814.25;;;20.06;100.00
45731;BME280;31440;48.584;13.460;2022-08-21T09:22:41;96812.63;;;20.38;100.00
45731;BME280;31440;48.584;13.460;2022-08-21T09:25:31;96811.00;;;19.45;100.00
45731;BME280;31440;48.584;13.460;2022-08-21T09:27:58;96802.09;;;19.81;100.00
45731;BME280;31440;48.584;13.460;2022-08-21T09:30:28;96799.41;;;20.27;100.00
45731;BME280;31440;48.584;13.460;2022-08-21T09:32:54;96802.84;;;20.83;100.00
45731;BME280;31440;48.584;13.460;2022-08-21T09:35:21;96816.63;;;19.98;100.00
45731;BME280;31440;48.584;13.460;2022-08-21T09:37:54;96812.13;;;20.56;100.00
45731;BME280;31440;48.584;13.460;2022-08-21T09:45:38;96804.97;;;19.67;100.00
45731;BME280;31440;48.584;13.460;2022-08-21T09:48:13;96795.44;;;20.33;100.00
45731;BME280;31440;48.584;13.460;2022-08-21T09:50:40;96803.84;;;19.58;100.00
45731;BME280;31440;48.584;13.460;2022-08-21T09:53:16;96810.03;;;19.46;100.00
45731;BME280;31440;48.584;13.460;2022-08-21T09:55:52;96802.78;;;19.61;100.00
45731;BME280;31440;48.584;13.460;2022-08-21T09:58:39;96794.53;;;19.88;100.00
45731;BME280;31440;48.584;13.460;2022-08-21T10:01:13;96793.34;;;21.24;100.00
45731;BME280;31440;48.584;13.460;2022-08-21T10:03:39;96784.00;;;21.52;100.00
45731;BME280;31440;48.584;13.460;2022-08-21T10:06:07;96780.09;;;22.58;100.00
45731;BME280;31440;48.584;13.460;2022-08-21T10:08:36;96784.25;;;22.21;100.00
45731;BME280;31440;48.584;13.460;2022-08-21T10:11:09;96777.88;;;21.72;100.00
45731;BME280;31440;48.584;13.460;2022-08-21T10:14:30;96779.53;;;21.73;100.00
45731;BME280;31440;48.584;13.460;2022-08-21T10:16:49;96771.25;;;22.08;100.00
45731;BME280;31440;48.584;13.460;2022-08-21T10:19:37;96767.47;;;22.91;95.14
45731;BME280;31440;48.584;13.460;2022-08-21T10:22:24;96776.09;;;22.03;96.31
45731;BME280;31440;48.584;13.460;2022-08-21T10:30:12;96767.38;;;22.22;91.09
45731;BME280;31440;48.584;13.460;2022-08-21T10:33:14;96759.13;;;22.36;91.42
45731;BME280;31440;48.584;13.460;2022-08-21T10:38:55;96765.16;;;20.59;100.00
45731;BME280;31440;48.584;13.460;2022-08-21T10:42:05;96751.88;;;21.04;98.79
45731;BME280;31440;48.584;13.460;2022-08-21T10:45:01;96748.56;;;22.55;93.07
45731;BME280;31440;48.584;13.460;2022-08-21T10:47:40;96751.47;;;21.82;96.15
45731;BME280;31440;48.584;13.460;2022-08-21T10:53:19;96744.03;;;22.27;88.80
45731;BME280;31440;48.584;13.460;2022-08-21T10:58:40;96746.88;;;23.33;77.72
45731;BME280;31440;48.584;13.460;2022-08-21T11:01:34;96741.13;;;23.57;72.02
45731;BME280;31440;48.584;13.460;2022-08-21T11:04:16;96734.44;;;23.43;72.69
45731;BME280;31440;48.584;13.460;2022-08-21T11:06:52;96729.53;;;23.58;75.72
45731;BME280;31440;48.584;13.460;2022-08-21T11:09:20;96724.66;;;23.63;71.04
45731;BME280;31440;48.584;13.460;2022-08-21T11:11:54;96717.88;;;23.88;66.95
45731;BME280;31440;48.584;13.460;2022-08-21T11:17:16;96720.88;;;23.75;68.66
45731;BME280;31440;48.584;13.460;2022-08-21T11:22:21;96714.75;;;23.26;65.46
45731;BME280;31440;48.584;13.460;2022-08-21T11:24:55;96718.75;;;22.73;69.83
45731;BME280;31440;48.584;13.460;2022-08-21T11:30:00;96719.53;;;22.35;69.33
45731;BME280;31440;48.584;13.460;2022-08-21T11:35:33;96706.22;;;23.62;63.13
45731;BME280;31440;48.584;13.460;2022-08-21T11:41:13;96699.28;;;23.98;60.41
45731;BME280;31440;48.584;13.460;2022-08-21T11:43:45;96701.44;;;24.67;60.05
45731;BME280;31440;48.584;13.460;2022-08-21T11:46:34;96702.41;;;24.48;59.91
45731;BME280;31440;48.584;13.460;2022-08-21T11:49:28;96704.06;;;25.12;60.84
45731;BME280;31440;48.584;13.460;2022-08-21T11:52:18;96695.81;;;24.70;58.22
45731;BME280;31440;48.584;13.460;2022-08-21T11:54:46;96693.00;;;23.89;60.93
45731;BME280;31440;48.584;13.460;2022-08-21T11:57:19;96694.88;;;23.79;60.68
45731;BME280;31440;48.584;13.460;2022-08-21T11:59:59;96696.94;;;23.85;60.26
45731;BME280;31440;48.584;13.460;2022-08-21T12:02:29;96691.84;;;25.01;57.48
45731;BME280;31440;48.584;13.460;2022-08-21T12:05:02;96682.84;;;24.12;59.86
45731;BME280;31440;48.584;13.460;2022-08-21T12:07:59;96691.44;;;24.78;59.63
45731;BME280;31440;48.584;13.460;2022-08-21T12:10:31;96695.03;;;25.48;57.13
45731;BME280;31440;48.584;13.460;2022-08-21T12:13:09;96709.97;;;25.06;58.32
45731;BME280;31440;48.584;13.460;2022-08-21T12:15:36;96713.31;;;25.25;61.01
45731;BME280;31440;48.584;13.460;2022-08-21T12:18:30;96696.50;;;23.89;59.79
45731;BME280;31440;48.584;13.460;2022-08-21T12:21:01;96700.50;;;23.47;61.36
45731;BME280;31440;48.584;13.460;2022-08-21T12:26:38;96700.03;;;22.05;67.48
45731;BME280;31440;48.584;13.460;2022-08-21T12:29:22;96701.59;;;21.36;69.60
45731;BME280;31440;48.584;13.460;2022-08-21T12:34:23;96728.81;;;20.51;76.35
45731;BME280;31440;48.584;13.460;2022-08-21T12:36:56;96727.88;;;20.30;82.25
45731;BME280;31440;48.584;13.460;2022-08-21T12:39:27;96709.97;;;21.20;76.58
45731;BME280;31440;48.584;13.460;2022-08-21T12:42:15;96721.28;;;20.90;80.89
45731;BME280;31440;48.584;13.460;2022-08-21T12:44:56;96708.88;;;21.23;77.92
45731;BME280;31440;48.584;13.460;2022-08-21T12:47:54;96708.63;;;21.26;80.54
45731;BME280;31440;48.584;13.460;2022-08-21T12:50:36;96712.28;;;21.13;83.22
45731;BME280;31440;48.584;13.460;2022-08-21T12:53:12;96705.06;;;21.36;83.45
45731;BME280;31440;48.584;13.460;2022-08-21T12:55:42;96697.66;;;21.51;83.82
45731;BME280;31440;48.584;13.460;2022-08-21T12:58:21;96710.69;;;21.22;81.29
45731;BME280;31440;48.584;13.460;2022-08-21T13:00:51;96698.69;;;21.39;82.79
45731;BME280;31440;48.584;13.460;2022-08-21T13:03:17;96700.06;;;21.54;77.56
45731;BME280;31440;48.584;13.460;2022-08-21T13:05:43;96696.56;;;21.33;84.23
45731;BME280;31440;48.584;13.460;2022-08-21T13:08:11;96698.69;;;21.39;82.87
45731;BME280;31440;48.584;13.460;2022-08-21T13:10:39;96690.00;;;22.09;77.87
45731;BME280;31440;48.584;13.460;2022-08-21T13:13:09;96687.97;;;23.10;77.78
45731;BME280;31440;48.584;13.460;2022-08-21T13:15:38;96682.81;;;23.18;67.71
45731;BME280;31440;48.584;13.460;2022-08-21T13:18:06;96680.47;;;24.63;71.37
45731;BME280;31440;48.584;13.460;2022-08-21T13:20:38;96672.06;;;25.21;64.05
45731;BME280;31440;48.584;13.460;2022-08-21T13:23:24;96669.91;;;25.25;58.75
45731;BME280;31440;48.584;13.460;2022-08-21T13:25:50;96661.50;;;25.12;57.41
45731;BME280;31440;48.584;13.460;2022-08-21T13:28:15;96675.56;;;24.69;60.92
45731;BME280;31440;48.584;13.460;2022-08-21T13:30:44;96672.50;;;24.46;64.26
45731;BME280;31440;48.584;13.460;2022-08-21T13:33:13;96671.63;;;24.18;64.91
45731;BME280;31440;48.584;13.460;2022-08-21T13:38:30;96667.72;;;23.38;69.38
45731;BME280;31440;48.584;13.460;2022-08-21T13:41:03;96669.25;;;23.41;67.50
45731;BME280;31440;48.584;13.460;2022-08-21T13:43:35;96673.34;;;22.97;71.38
45731;BME280;31440;48.584;13.460;2022-08-21T13:46:07;96674.00;;;22.20;75.54
45731;BME280;31440;48.584;13.460;2022-08-21T13:48:35;96682.91;;;22.19;83.41